sensor_id;sensor_type;location;lat;lon;timestamp;P1;durP1;ratioP1;P2;durP2;ratioP2
1376;SDS011;682;52.502;13.488;2022-12-01T00:02:21;60.85;;;31.55;;
1376;SDS011;682;52.502;13.488;2022-12-01T00:04:48;56.30;;;32.42;;
1376;SDS011;682;52.502;13.488;2022-12-01T00:07:17;67.40;;;33.00;;
1376;SDS011;682;52.502;13.488;2022-12-01T00:09:49;57.63;;;30.30;;
1376;SDS011;682;52.502;13.488;2022-12-01T00:12:48;61.05;;;31.00;;
1376;SDS011;682;52.502;13.488;2022-12-01T00:15:22;52.15;;;30.33;;
1376;SDS011;682;52.502;13.488;2022-12-01T00:18:02;62.38;;;31.92;;
1376;SDS011;682;52.502;13.488;2022-12-01T00:20:33;59.67;;;31.70;;
1376;SDS011;682;52.502;13.488;2022-12-01T00:23:04;57.38;;;31.58;;
1376;SDS011;682;52.502;13.488;2022-12-01T00:25:34;61.42;;;33.05;;
1376;SDS011;682;52.502;13.488;2022-12-01T00:28:00;65.25;;;32.53;;
1376;SDS011;682;52.502;13.488;2022-12-01T00:30:28;70.00;;;35.85;;
1376;SDS011;682;52.502;13.488;2022-12-01T00:32:57;64.75;;;32.95;;
1376;SDS011;682;52.502;13.488;2022-12-01T00:35:26;65.35;;;34.78;;
1376;SDS011;682;52.502;13.488;2022-12-01T00:37:53;70.90;;;34.58;;
1376;SDS011;682;52.502;13.488;2022-12-01T00:40:20;63.55;;;34.50;;
1376;SDS011;682;52.502;13.488;2022-12-01T00:42:48;65.15;;;34.35;;
1376;SDS011;682;52.502;13.488;2022-12-01T00:45:23;65.65;;;35.60;;
1376;SDS011;682;52.502;13.488;2022-12-01T00:48:05;70.55;;;36.17;;
1376;SDS011;682;52.502;13.488;2022-12-01T00:50:52;67.22;;;35.15;;
1376;SDS011;682;52.502;13.488;2022-12-01T00:53:23;71.18;;;37.35;;
1376;SDS011;682;52.502;13.488;2022-12-01T00:55:53;67.93;;;34.08;;
1376;SDS011;682;52.502;13.488;2022-12-01T00:58:21;63.95;;;32.60;;
1376;SDS011;682;52.502;13.488;2022-12-01T01:00:59;68.25;;;35.88;;
1376;SDS011;682;52.502;13.488;2022-12-01T01:03:32;73.68;;;34.65;;
1376;SDS011;682;52.502;13.488;2022-12-01T01:06:04;68.90;;;37.35;;
1376;SDS011;682;52.502;13.488;2022-12-01T01:08:33;65.18;;;32.90;;
1376;SDS011;682;52.502;13.488;2022-12-01T01:11:03;68.53;;;33.80;;
1376;SDS011;682;52.502;13.488;2022-12-01T01:13:44;70.50;;;35.20;;
1376;SDS011;682;52.502;13.488;2022-12-01T01:16:19;72.93;;;34.08;;
1376;SDS011;682;52.502;13.488;2022-12-01T01:18:51;63.40;;;34.90;;
1376;SDS011;682;52.502;13.488;2022-12-01T01:21:20;72.35;;;35.13;;
1376;SDS011;682;52.502;13.488;2022-12-01T01:23:51;62.88;;;32.65;;
1376;SDS011;682;52.502;13.488;2022-12-01T01:26:19;68.50;;;34.25;;
1376;SDS011;682;52.502;13.488;2022-12-01T01:28:48;66.93;;;35.58;;
1376;SDS011;682;52.502;13.488;2022-12-01T01:31:19;69.93;;;32.85;;
1376;SDS011;682;52.502;13.488;2022-12-01T01:33:47;71.25;;;35.78;;
1376;SDS011;682;52.502;13.488;2022-12-01T01:36:16;69.55;;;36.53;;
1376;SDS011;682;52.502;13.488;2022-12-01T01:38:45;73.10;;;34.20;;
1376;SDS011;682;52.502;13.488;2022-12-01T01:41:15;79.30;;;38.75;;
1376;SDS011;682;52.502;13.488;2022-12-01T01:43:43;72.57;;;35.28;;
1376;SDS011;682;52.502;13.488;2022-12-01T01:46:11;64.13;;;33.40;;
1376;SDS011;682;52.502;13.488;2022-12-01T01:48:42;71.45;;;37.03;;
1376;SDS011;682;52.502;13.488;2022-12-01T01:51:13;72.15;;;34.22;;
1376;SDS011;682;52.502;13.488;2022-12-01T01:53:55;83.28;;;37.78;;
1376;SDS011;682;52.502;13.488;2022-12-01T01:56:41;72.60;;;35.67;;
1376;SDS011;682;52.502;13.488;2022-12-01T01:59:09;68.50;;;35.00;;
1376;SDS011;682;52.502;13.488;2022-12-01T02:01:41;81.50;;;37.30;;
1376;SDS011;682;52.502;13.488;2022-12-01T02:04:11;72.18;;;37.22;;
1376;SDS011;682;52.502;13.488;2022-12-01T02:06:41;69.72;;;35.80;;
1376;SDS011;682;52.502;13.488;2022-12-01T02:09:12;77.07;;;36.72;;
1376;SDS011;682;52.502;13.488;2022-12-01T02:11:46;69.45;;;35.95;;
1376;SDS011;682;52.502;13.488;2022-12-01T02:14:45;69.40;;;34.28;;
1376;SDS011;682;52.502;13.488;2022-12-01T02:17:30;73.10;;;34.63;;
1376;SDS011;682;52.502;13.488;2022-12-01T02:20:22;65.55;;;34.72;;
1376;SDS011;682;52.502;13.488;2022-12-01T02:26:17;64.40;;;33.75;;
1376;SDS011;682;52.502;13.488;2022-12-01T02:29:09;65.90;;;34.58;;
1376;SDS011;682;52.502;13.488;2022-12-01T02:32:03;67.85;;;34.65;;
1376;SDS011;682;52.502;13.488;2022-12-01T02:34:42;59.92;;;31.92;;
1376;SDS011;682;52.502;13.488;2022-12-01T02:37:19;69.68;;;35.20;;
1376;SDS011;682;52.502;13.488;2022-12-01T02:40:05;69.07;;;34.05;;
1376;SDS011;682;52.502;13.488;2022-12-01T02:42:43;76.38;;;35.75;;
1376;SDS011;682;52.502;13.488;2022-12-01T02:45:29;72.60;;;34.40;;
1376;SDS011;682;52.502;13.488;2022-12-01T02:48:03;70.25;;;37.10;;
1376;SDS011;682;52.502;13.488;2022-12-01T02:50:37;76.13;;;35.97;;
1376;SDS011;682;52.502;13.488;2022-12-01T02:53:09;76.97;;;35.25;;
1376;SDS011;682;52.502;13.488;2022-12-01T02:55:45;72.18;;;36.33;;
1376;SDS011;682;52.502;13.488;2022-12-01T02:58:23;86.53;;;37.15;;
1376;SDS011;682;52.502;13.488;2022-12-01T03:01:00;83.38;;;38.50;;
1376;SDS011;682;52.502;13.488;2022-12-01T03:03:43;77.10;;;38.67;;
1376;SDS011;682;52.502;13.488;2022-12-01T03:06:40;76.45;;;37.83;;
1376;SDS011;682;52.502;13.488;2022-12-01T03:09:22;75.32;;;37.88;;
1376;SDS011;682;52.502;13.488;2022-12-01T03:12:00;86.82;;;37.83;;
1376;SDS011;682;52.502;13.488;2022-12-01T03:14:41;82.45;;;37.65;;
1376;SDS011;682;52.502;13.488;2022-12-01T03:17:20;71.43;;;37.70;;
1376;SDS011;682;52.502;13.488;2022-12-01T03:19:59;78.07;;;37.70;;
1376;SDS011;682;52.502;13.488;2022-12-01T03:22:40;84.18;;;39.78;;
1376;SDS011;682;52.502;13.488;2022-12-01T03:25:17;82.45;;;37.67;;
1376;SDS011;682;52.502;13.488;2022-12-01T03:27:55;78.90;;;38.22;;
1376;SDS011;682;52.502;13.488;2022-12-01T03:30:23;75.50;;;38.28;;
1376;SDS011;682;52.502;13.488;2022-12-01T03:32:59;75.68;;;38.22;;
1376;SDS011;682;52.502;13.488;2022-12-01T03:35:34;88.30;;;38.70;;
1376;SDS011;682;52.502;13.488;2022-12-01T03:38:07;82.05;;;41.25;;
1376;SDS011;682;52.502;13.488;2022-12-01T03:40:43;83.60;;;38.15;;
1376;SDS011;682;52.502;13.488;2022-12-01T03:43:18;79.25;;;38.95;;
1376;SDS011;682;52.502;13.488;2022-12-01T03:45:52;95.38;;;43.05;;
1376;SDS011;682;52.502;13.488;2022-12-01T03:48:24;78.03;;;37.30;;
1376;SDS011;682;52.502;13.488;2022-12-01T03:51:01;79.78;;;39.05;;
1376;SDS011;682;52.502;13.488;2022-12-01T03:53:40;78.45;;;37.65;;
1376;SDS011;682;52.502;13.488;2022-12-01T03:56:18;79.20;;;39.88;;
1376;SDS011;682;52.502;13.488;2022-12-01T03:58:51;83.40;;;41.45;;
1376;SDS011;682;52.502;13.488;2022-12-01T04:01:22;81.50;;;39.60;;
1376;SDS011;682;52.502;13.488;2022-12-01T04:03:51;82.00;;;38.45;;
1376;SDS011;682;52.502;13.488;2022-12-01T04:06:21;90.72;;;43.75;;
1376;SDS011;682;52.502;13.488;2022-12-01T04:08:51;80.35;;;40.17;;
1376;SDS011;682;52.502;13.488;2022-12-01T04:11:18;79.85;;;40.03;;
1376;SDS011;682;52.502;13.488;2022-12-01T04:14:04;92.25;;;43.65;;
1376;SDS011;682;52.502;13.488;2022-12-01T04:16:32;88.72;;;39.92;;
1376;SDS011;682;52.502;13.488;2022-12-01T04:19:01;82.53;;;39.35;;
1376;SDS011;682;52.502;13.488;2022-12-01T04:21:33;79.00;;;40.53;;
1376;SDS011;682;52.502;13.488;2022-12-01T04:24:00;81.60;;;39.70;;
1376;SDS011;682;52.502;13.488;2022-12-01T04:26:34;82.22;;;40.35;;
1376;SDS011;682;52.502;13.488;2022-12-01T04:29:04;81.75;;;38.88;;
1376;SDS011;682;52.502;13.488;2022-12-01T04:31:36;77.47;;;37.30;;
1376;SDS011;682;52.502;13.488;2022-12-01T04:34:04;83.93;;;40.85;;
1376;SDS011;682;52.502;13.488;2022-12-01T04:36:40;81.72;;;39.45;;
1376;SDS011;682;52.502;13.488;2022-12-01T04:39:08;84.35;;;42.45;;
1376;SDS011;682;52.502;13.488;2022-12-01T04:41:38;84.80;;;39.65;;
1376;SDS011;682;52.502;13.488;2022-12-01T04:44:16;84.75;;;42.03;;
1376;SDS011;682;52.502;13.488;2022-12-01T04:46:44;88.30;;;38.92;;
1376;SDS011;682;52.502;13.488;2022-12-01T04:49:12;77.30;;;40.67;;
1376;SDS011;682;52.502;13.488;2022-12-01T04:51:40;84.43;;;42.72;;
1376;SDS011;682;52.502;13.488;2022-12-01T04:54:10;80.60;;;39.53;;
1376;SDS011;682;52.502;13.488;2022-12-01T04:56:40;76.13;;;38.53;;
1376;SDS011;682;52.502;13.488;2022-12-01T04:59:12;75.75;;;39.42;;
1376;SDS011;682;52.502;13.488;2022-12-01T05:01:41;76.45;;;38.38;;
1376;SDS011;682;52.502;13.488;2022-12-01T05:04:09;81.80;;;39.97;;
1376;SDS011;682;52.502;13.488;2022-12-01T05:06:38;84.00;;;41.20;;
1376;SDS011;682;52.502;13.488;2022-12-01T05:09:08;79.80;;;41.00;;
1376;SDS011;682;52.502;13.488;2022-12-01T05:11:39;77.78;;;41.60;;
1376;SDS011;682;52.502;13.488;2022-12-01T05:14:06;74.72;;;41.45;;
1376;SDS011;682;52.502;13.488;2022-12-01T05:16:33;81.80;;;39.88;;
1376;SDS011;682;52.502;13.488;2022-12-01T05:19:02;78.40;;;41.25;;
1376;SDS011;682;52.502;13.488;2022-12-01T05:21:49;77.60;;;38.80;;
1376;SDS011;682;52.502;13.488;2022-12-01T05:24:17;73.32;;;40.08;;
1376;SDS011;682;52.502;13.488;2022-12-01T05:26:49;74.65;;;39.20;;
1376;SDS011;682;52.502;13.488;2022-12-01T05:29:16;76.38;;;40.75;;
1376;SDS011;682;52.502;13.488;2022-12-01T05:31:45;79.07;;;38.75;;
1376;SDS011;682;52.502;13.488;2022-12-01T05:34:18;73.70;;;38.70;;
1376;SDS011;682;52.502;13.488;2022-12-01T05:36:47;79.43;;;39.92;;
1376;SDS011;682;52.502;13.488;2022-12-01T05:39:16;79.43;;;38.63;;
1376;SDS011;682;52.502;13.488;2022-12-01T05:41:53;80.78;;;39.67;;
1376;SDS011;682;52.502;13.488;2022-12-01T05:44:20;75.65;;;38.47;;
1376;SDS011;682;52.502;13.488;2022-12-01T05:46:48;78.35;;;39.83;;
1376;SDS011;682;52.502;13.488;2022-12-01T05:49:16;75.28;;;38.97;;
1376;SDS011;682;52.502;13.488;2022-12-01T05:51:43;72.30;;;39.85;;
1376;SDS011;682;52.502;13.488;2022-12-01T05:54:16;76.22;;;38.45;;
1376;SDS011;682;52.502;13.488;2022-12-01T05:56:48;77.43;;;40.15;;
1376;SDS011;682;52.502;13.488;2022-12-01T05:59:15;76.88;;;40.30;;
1376;SDS011;682;52.502;13.488;2022-12-01T06:01:48;75.72;;;40.75;;
1376;SDS011;682;52.502;13.488;2022-12-01T06:04:15;72.75;;;40.30;;
1376;SDS011;682;52.502;13.488;2022-12-01T06:06:43;69.97;;;37.83;;
1376;SDS011;682;52.502;13.488;2022-12-01T06:09:12;81.65;;;41.78;;
1376;SDS011;682;52.502;13.488;2022-12-01T06:11:43;79.72;;;41.30;;
1376;SDS011;682;52.502;13.488;2022-12-01T06:14:15;82.93;;;42.70;;
1376;SDS011;682;52.502;13.488;2022-12-01T06:16:43;75.90;;;40.60;;
1376;SDS011;682;52.502;13.488;2022-12-01T06:19:19;70.13;;;39.42;;
1376;SDS011;682;52.502;13.488;2022-12-01T06:21:46;83.22;;;42.47;;
1376;SDS011;682;52.502;13.488;2022-12-01T06:24:23;75.80;;;39.30;;
1376;SDS011;682;52.502;13.488;2022-12-01T06:27:09;83.57;;;39.30;;
1376;SDS011;682;52.502;13.488;2022-12-01T06:29:36;83.15;;;42.65;;
1376;SDS011;682;52.502;13.488;2022-12-01T06:32:08;80.50;;;41.13;;
1376;SDS011;682;52.502;13.488;2022-12-01T06:34:35;81.65;;;46.00;;
1376;SDS011;682;52.502;13.488;2022-12-01T06:37:02;77.40;;;44.50;;
1376;SDS011;682;52.502;13.488;2022-12-01T06:39:40;81.55;;;41.00;;
1376;SDS011;682;52.502;13.488;2022-12-01T06:42:10;81.00;;;42.47;;
1376;SDS011;682;52.502;13.488;2022-12-01T06:44:41;78.00;;;40.40;;
1376;SDS011;682;52.502;13.488;2022-12-01T06:47:11;77.25;;;41.53;;
1376;SDS011;682;52.502;13.488;2022-12-01T06:49:44;83.60;;;44.53;;
1376;SDS011;682;52.502;13.488;2022-12-01T06:52:50;75.15;;;42.58;;
1376;SDS011;682;52.502;13.488;2022-12-01T06:55:26;85.53;;;44.97;;
1376;SDS011;682;52.502;13.488;2022-12-01T06:58:00;85.32;;;44.72;;
1376;SDS011;682;52.502;13.488;2022-12-01T07:00:27;77.40;;;41.95;;
1376;SDS011;682;52.502;13.488;2022-12-01T07:02:54;87.28;;;44.10;;
1376;SDS011;682;52.502;13.488;2022-12-01T07:05:21;87.95;;;45.58;;
1376;SDS011;682;52.502;13.488;2022-12-01T07:07:49;88.00;;;43.78;;
1376;SDS011;682;52.502;13.488;2022-12-01T07:10:16;87.47;;;45.42;;
1376;SDS011;682;52.502;13.488;2022-12-01T07:12:44;97.95;;;48.08;;
1376;SDS011;682;52.502;13.488;2022-12-01T07:15:12;94.80;;;48.70;;
1376;SDS011;682;52.502;13.488;2022-12-01T07:17:39;99.68;;;48.33;;
1376;SDS011;682;52.502;13.488;2022-12-01T07:20:07;98.47;;;47.67;;
1376;SDS011;682;52.502;13.488;2022-12-01T07:22:35;102.55;;;49.88;;
1376;SDS011;682;52.502;13.488;2022-12-01T07:25:04;91.18;;;48.20;;
1376;SDS011;682;52.502;13.488;2022-12-01T07:27:34;94.75;;;49.35;;
1376;SDS011;682;52.502;13.488;2022-12-01T07:30:01;95.85;;;49.97;;
1376;SDS011;682;52.502;13.488;2022-12-01T07:32:30;105.72;;;51.15;;
1376;SDS011;682;52.502;13.488;2022-12-01T07:34:57;94.03;;;47.60;;
1376;SDS011;682;52.502;13.488;2022-12-01T07:37:24;100.07;;;47.90;;
1376;SDS011;682;52.502;13.488;2022-12-01T07:39:52;94.75;;;49.30;;
1376;SDS011;682;52.502;13.488;2022-12-01T07:42:20;104.15;;;48.95;;
1376;SDS011;682;52.502;13.488;2022-12-01T07:44:47;100.18;;;49.40;;
1376;SDS011;682;52.502;13.488;2022-12-01T07:47:14;113.47;;;51.28;;
1376;SDS011;682;52.502;13.488;2022-12-01T07:49:42;109.95;;;53.55;;
1376;SDS011;682;52.502;13.488;2022-12-01T07:52:09;116.50;;;52.08;;
1376;SDS011;682;52.502;13.488;2022-12-01T07:54:38;103.65;;;50.60;;
1376;SDS011;682;52.502;13.488;2022-12-01T07:57:09;101.97;;;50.83;;
1376;SDS011;682;52.502;13.488;2022-12-01T07:59:40;108.68;;;53.95;;
1376;SDS011;682;52.502;13.488;2022-12-01T08:02:08;115.82;;;54.08;;
1376;SDS011;682;52.502;13.488;2022-12-01T08:04:56;99.57;;;52.45;;
1376;SDS011;682;52.502;13.488;2022-12-01T08:07:26;105.75;;;49.58;;
1376;SDS011;682;52.502;13.488;2022-12-01T08:10:01;103.28;;;49.53;;
1376;SDS011;682;52.502;13.488;2022-12-01T08:12:28;103.55;;;49.20;;
1376;SDS011;682;52.502;13.488;2022-12-01T08:14:59;101.35;;;48.33;;
1376;SDS011;682;52.502;13.488;2022-12-01T08:17:27;94.97;;;48.25;;
1376;SDS011;682;52.502;13.488;2022-12-01T08:19:59;96.00;;;47.92;;
1376;SDS011;682;52.502;13.488;2022-12-01T08:22:26;93.15;;;46.88;;
1376;SDS011;682;52.502;13.488;2022-12-01T08:24:55;96.15;;;49.67;;
1376;SDS011;682;52.502;13.488;2022-12-01T08:27:24;104.10;;;51.00;;
1376;SDS011;682;52.502;13.488;2022-12-01T08:29:52;105.13;;;51.35;;
1376;SDS011;682;52.502;13.488;2022-12-01T08:32:21;119.72;;;53.40;;
1376;SDS011;682;52.502;13.488;2022-12-01T08:34:55;104.40;;;54.08;;
1376;SDS011;682;52.502;13.488;2022-12-01T08:37:26;101.32;;;50.35;;
1376;SDS011;682;52.502;13.488;2022-12-01T08:39:59;100.80;;;51.15;;
1376;SDS011;682;52.502;13.488;2022-12-01T08:42:26;96.70;;;48.25;;
1376;SDS011;682;52.502;13.488;2022-12-01T08:44:53;102.15;;;49.47;;
1376;SDS011;682;52.502;13.488;2022-12-01T08:47:20;105.45;;;53.30;;
1376;SDS011;682;52.502;13.488;2022-12-01T08:49:47;116.80;;;51.88;;
1376;SDS011;682;52.502;13.488;2022-12-01T08:52:17;105.60;;;50.38;;
1376;SDS011;682;52.502;13.488;2022-12-01T08:54:44;97.78;;;51.15;;
1376;SDS011;682;52.502;13.488;2022-12-01T08:57:11;108.43;;;50.15;;
1376;SDS011;682;52.502;13.488;2022-12-01T08:59:38;110.45;;;53.33;;
1376;SDS011;682;52.502;13.488;2022-12-01T09:02:05;99.57;;;47.88;;
1376;SDS011;682;52.502;13.488;2022-12-01T09:04:36;106.60;;;49.60;;
1376;SDS011;682;52.502;13.488;2022-12-01T09:07:08;108.18;;;49.50;;
1376;SDS011;682;52.502;13.488;2022-12-01T09:09:42;101.50;;;49.30;;
1376;SDS011;682;52.502;13.488;2022-12-01T09:12:10;111.15;;;52.03;;
1376;SDS011;682;52.502;13.488;2022-12-01T09:14:39;106.63;;;52.70;;
1376;SDS011;682;52.502;13.488;2022-12-01T09:17:09;107.78;;;54.78;;
1376;SDS011;682;52.502;13.488;2022-12-01T09:19:38;105.93;;;52.30;;
1376;SDS011;682;52.502;13.488;2022-12-01T09:22:06;104.80;;;54.88;;
1376;SDS011;682;52.502;13.488;2022-12-01T09:24:33;108.60;;;53.38;;
1376;SDS011;682;52.502;13.488;2022-12-01T09:27:07;104.90;;;53.58;;
1376;SDS011;682;52.502;13.488;2022-12-01T09:29:46;110.10;;;52.88;;
1376;SDS011;682;52.502;13.488;2022-12-01T09:32:19;102.07;;;49.85;;
1376;SDS011;682;52.502;13.488;2022-12-01T09:34:46;103.70;;;50.45;;
1376;SDS011;682;52.502;13.488;2022-12-01T09:37:12;96.85;;;49.80;;
1376;SDS011;682;52.502;13.488;2022-12-01T09:39:44;98.50;;;47.00;;
1376;SDS011;682;52.502;13.488;2022-12-01T09:42:13;100.78;;;50.22;;
1376;SDS011;682;52.502;13.488;2022-12-01T09:44:51;95.03;;;45.97;;
1376;SDS011;682;52.502;13.488;2022-12-01T09:47:29;95.95;;;49.53;;
1376;SDS011;682;52.502;13.488;2022-12-01T09:50:09;86.07;;;47.00;;
1376;SDS011;682;52.502;13.488;2022-12-01T09:52:46;81.40;;;43.70;;
1376;SDS011;682;52.502;13.488;2022-12-01T09:55:17;83.55;;;44.33;;
1376;SDS011;682;52.502;13.488;2022-12-01T09:57:51;91.22;;;45.90;;
1376;SDS011;682;52.502;13.488;2022-12-01T10:00:25;87.72;;;46.15;;
1376;SDS011;682;52.502;13.488;2022-12-01T10:03:00;85.97;;;45.78;;
1376;SDS011;682;52.502;13.488;2022-12-01T10:05:41;85.15;;;44.13;;
1376;SDS011;682;52.502;13.488;2022-12-01T10:08:11;88.45;;;45.03;;
1376;SDS011;682;52.502;13.488;2022-12-01T10:10:45;81.40;;;44.08;;
1376;SDS011;682;52.502;13.488;2022-12-01T10:13:21;83.72;;;47.75;;
1376;SDS011;682;52.502;13.488;2022-12-01T10:15:53;80.00;;;42.35;;
1376;SDS011;682;52.502;13.488;2022-12-01T10:18:31;76.75;;;44.10;;
1376;SDS011;682;52.502;13.488;2022-12-01T10:21:12;87.60;;;47.00;;
1376;SDS011;682;52.502;13.488;2022-12-01T10:24:04;80.13;;;43.20;;
1376;SDS011;682;52.502;13.488;2022-12-01T10:26:46;78.03;;;42.30;;
1376;SDS011;682;52.502;13.488;2022-12-01T10:29:30;77.97;;;39.88;;
1376;SDS011;682;52.502;13.488;2022-12-01T10:32:09;80.03;;;42.95;;
1376;SDS011;682;52.502;13.488;2022-12-01T10:34:42;74.72;;;41.22;;
1376;SDS011;682;52.502;13.488;2022-12-01T10:37:16;69.10;;;41.08;;
1376;SDS011;682;52.502;13.488;2022-12-01T10:39:50;75.25;;;39.75;;
1376;SDS011;682;52.502;13.488;2022-12-01T10:42:22;75.95;;;43.75;;
1376;SDS011;682;52.502;13.488;2022-12-01T10:45:01;73.20;;;40.90;;
1376;SDS011;682;52.502;13.488;2022-12-01T10:47:35;73.93;;;43.15;;
1376;SDS011;682;52.502;13.488;2022-12-01T10:50:03;72.13;;;41.65;;
1376;SDS011;682;52.502;13.488;2022-12-01T10:52:37;73.95;;;40.35;;
1376;SDS011;682;52.502;13.488;2022-12-01T10:55:23;70.53;;;41.90;;
1376;SDS011;682;52.502;13.488;2022-12-01T10:57:56;74.60;;;40.80;;
1376;SDS011;682;52.502;13.488;2022-12-01T11:00:31;75.50;;;40.58;;
1376;SDS011;682;52.502;13.488;2022-12-01T11:03:01;76.72;;;44.30;;
1376;SDS011;682;52.502;13.488;2022-12-01T11:05:50;76.00;;;41.10;;
1376;SDS011;682;52.502;13.488;2022-12-01T11:08:22;76.90;;;42.70;;
1376;SDS011;682;52.502;13.488;2022-12-01T11:10:53;72.85;;;41.85;;
1376;SDS011;682;52.502;13.488;2022-12-01T11:13:45;75.05;;;44.25;;
1376;SDS011;682;52.502;13.488;2022-12-01T11:16:31;70.75;;;42.97;;
1376;SDS011;682;52.502;13.488;2022-12-01T11:19:27;63.47;;;38.15;;
1376;SDS011;682;52.502;13.488;2022-12-01T11:21:57;74.57;;;39.67;;
1376;SDS011;682;52.502;13.488;2022-12-01T11:24:32;75.60;;;43.20;;
1376;SDS011;682;52.502;13.488;2022-12-01T11:27:22;71.72;;;41.55;;
1376;SDS011;682;52.502;13.488;2022-12-01T11:30:05;68.22;;;40.38;;
1376;SDS011;682;52.502;13.488;2022-12-01T11:32:58;73.65;;;40.95;;
1376;SDS011;682;52.502;13.488;2022-12-01T11:35:30;75.07;;;42.22;;
1376;SDS011;682;52.502;13.488;2022-12-01T11:38:01;75.13;;;41.70;;
1376;SDS011;682;52.502;13.488;2022-12-01T11:40:44;72.80;;;40.50;;
1376;SDS011;682;52.502;13.488;2022-12-01T11:43:19;69.40;;;39.78;;
1376;SDS011;682;52.502;13.488;2022-12-01T11:45:54;68.22;;;41.17;;
1376;SDS011;682;52.502;13.488;2022-12-01T11:48:27;71.68;;;40.92;;
1376;SDS011;682;52.502;13.488;2022-12-01T11:51:02;65.53;;;40.03;;
1376;SDS011;682;52.502;13.488;2022-12-01T11:53:33;62.28;;;38.53;;
1376;SDS011;682;52.502;13.488;2022-12-01T11:56:17;66.03;;;38.15;;
1376;SDS011;682;52.502;13.488;2022-12-01T11:58:48;64.50;;;36.42;;
1376;SDS011;682;52.502;13.488;2022-12-01T12:01:19;63.22;;;38.13;;
1376;SDS011;682;52.502;13.488;2022-12-01T12:04:04;63.63;;;38.28;;
1376;SDS011;682;52.502;13.488;2022-12-01T12:06:42;65.05;;;38.60;;
1376;SDS011;682;52.502;13.488;2022-12-01T12:09:27;62.40;;;38.60;;
1376;SDS011;682;52.502;13.488;2022-12-01T12:12:19;57.47;;;36.63;;
1376;SDS011;682;52.502;13.488;2022-12-01T12:15:10;61.15;;;36.90;;
1376;SDS011;682;52.502;13.488;2022-12-01T12:17:52;60.33;;;34.10;;
1376;SDS011;682;52.502;13.488;2022-12-01T12:20:37;63.22;;;35.40;;
1376;SDS011;682;52.502;13.488;2022-12-01T12:23:28;52.30;;;33.22;;
1376;SDS011;682;52.502;13.488;2022-12-01T12:26:17;56.28;;;34.03;;
1376;SDS011;682;52.502;13.488;2022-12-01T12:32:16;50.58;;;33.22;;
1376;SDS011;682;52.502;13.488;2022-12-01T12:35:18;54.10;;;33.03;;
1376;SDS011;682;52.502;13.488;2022-12-01T12:38:01;57.42;;;34.03;;
1376;SDS011;682;52.502;13.488;2022-12-01T12:40:59;56.65;;;34.45;;
1376;SDS011;682;52.502;13.488;2022-12-01T12:43:59;57.83;;;34.45;;
1376;SDS011;682;52.502;13.488;2022-12-01T12:46:48;57.75;;;34.55;;
1376;SDS011;682;52.502;13.488;2022-12-01T12:49:35;61.00;;;37.20;;
1376;SDS011;682;52.502;13.488;2022-12-01T12:52:15;52.67;;;33.38;;
1376;SDS011;682;52.502;13.488;2022-12-01T12:54:57;52.92;;;34.13;;
1376;SDS011;682;52.502;13.488;2022-12-01T12:57:36;54.28;;;32.13;;
1376;SDS011;682;52.502;13.488;2022-12-01T13:00:28;57.55;;;33.42;;
1376;SDS011;682;52.502;13.488;2022-12-01T13:03:09;56.13;;;34.88;;
1376;SDS011;682;52.502;13.488;2022-12-01T13:05:56;57.92;;;33.78;;
1376;SDS011;682;52.502;13.488;2022-12-01T13:08:37;59.95;;;33.63;;
1376;SDS011;682;52.502;13.488;2022-12-01T13:11:26;72.03;;;42.35;;
1376;SDS011;682;52.502;13.488;2022-12-01T13:14:05;58.88;;;33.95;;
1376;SDS011;682;52.502;13.488;2022-12-01T13:16:45;55.70;;;35.78;;
1376;SDS011;682;52.502;13.488;2022-12-01T13:19:20;57.22;;;35.15;;
1376;SDS011;682;52.502;13.488;2022-12-01T13:21:56;53.40;;;33.92;;
1376;SDS011;682;52.502;13.488;2022-12-01T13:24:26;58.90;;;34.97;;
1376;SDS011;682;52.502;13.488;2022-12-01T13:27:01;56.58;;;36.40;;
1376;SDS011;682;52.502;13.488;2022-12-01T13:29:35;55.72;;;32.35;;
1376;SDS011;682;52.502;13.488;2022-12-01T13:32:20;61.53;;;33.85;;
1376;SDS011;682;52.502;13.488;2022-12-01T13:34:52;53.58;;;32.35;;
1376;SDS011;682;52.502;13.488;2022-12-01T13:37:24;51.13;;;31.52;;
1376;SDS011;682;52.502;13.488;2022-12-01T13:40:15;56.97;;;34.15;;
1376;SDS011;682;52.502;13.488;2022-12-01T13:42:53;53.13;;;32.30;;
1376;SDS011;682;52.502;13.488;2022-12-01T13:45:34;51.42;;;32.17;;
1376;SDS011;682;52.502;13.488;2022-12-01T13:48:03;58.78;;;34.70;;
1376;SDS011;682;52.502;13.488;2022-12-01T13:50:56;55.42;;;34.58;;
1376;SDS011;682;52.502;13.488;2022-12-01T13:53:31;55.78;;;33.97;;
1376;SDS011;682;52.502;13.488;2022-12-01T13:59:03;53.78;;;34.72;;
1376;SDS011;682;52.502;13.488;2022-12-01T14:02:12;59.08;;;34.00;;
1376;SDS011;682;52.502;13.488;2022-12-01T14:04:42;56.67;;;32.13;;
1376;SDS011;682;52.502;13.488;2022-12-01T14:07:21;52.85;;;32.70;;
1376;SDS011;682;52.502;13.488;2022-12-01T14:09:55;53.20;;;32.95;;
1376;SDS011;682;52.502;13.488;2022-12-01T14:12:35;66.93;;;36.22;;
1376;SDS011;682;52.502;13.488;2022-12-01T14:17:57;51.08;;;34.75;;
1376;SDS011;682;52.502;13.488;2022-12-01T14:20:26;63.67;;;33.88;;
1376;SDS011;682;52.502;13.488;2022-12-01T14:23:23;55.15;;;34.55;;
1376;SDS011;682;52.502;13.488;2022-12-01T14:25:57;59.08;;;34.35;;
1376;SDS011;682;52.502;13.488;2022-12-01T14:29:20;53.53;;;33.08;;
1376;SDS011;682;52.502;13.488;2022-12-01T14:34:52;60.85;;;35.05;;
1376;SDS011;682;52.502;13.488;2022-12-01T14:37:26;56.78;;;34.33;;
1376;SDS011;682;52.502;13.488;2022-12-01T14:40:12;55.85;;;34.45;;
1376;SDS011;682;52.502;13.488;2022-12-01T14:42:44;50.28;;;33.65;;
1376;SDS011;682;52.502;13.488;2022-12-01T14:45:34;52.08;;;31.58;;
1376;SDS011;682;52.502;13.488;2022-12-01T14:48:22;56.10;;;33.75;;
1376;SDS011;682;52.502;13.488;2022-12-01T14:51:00;55.60;;;34.42;;
1376;SDS011;682;52.502;13.488;2022-12-01T14:53:44;60.22;;;34.78;;
1376;SDS011;682;52.502;13.488;2022-12-01T14:56:15;51.83;;;33.70;;
1376;SDS011;682;52.502;13.488;2022-12-01T14:58:57;56.05;;;33.70;;
1376;SDS011;682;52.502;13.488;2022-12-01T15:01:29;56.65;;;35.17;;
1376;SDS011;682;52.502;13.488;2022-12-01T15:04:04;57.83;;;34.55;;
1376;SDS011;682;52.502;13.488;2022-12-01T15:06:46;50.58;;;31.40;;
1376;SDS011;682;52.502;13.488;2022-12-01T15:09:22;58.47;;;33.05;;
1376;SDS011;682;52.502;13.488;2022-12-01T15:11:55;50.50;;;32.63;;
1376;SDS011;682;52.502;13.488;2022-12-01T15:14:28;53.05;;;32.58;;
1376;SDS011;682;52.502;13.488;2022-12-01T15:17:04;57.92;;;33.70;;
1376;SDS011;682;52.502;13.488;2022-12-01T15:19:37;54.20;;;35.50;;
1376;SDS011;682;52.502;13.488;2022-12-01T15:22:18;49.45;;;31.65;;
1376;SDS011;682;52.502;13.488;2022-12-01T15:24:56;50.47;;;33.55;;
1376;SDS011;682;52.502;13.488;2022-12-01T15:27:35;54.75;;;32.80;;
1376;SDS011;682;52.502;13.488;2022-12-01T15:30:02;54.30;;;34.45;;
1376;SDS011;682;52.502;13.488;2022-12-01T15:32:35;54.90;;;34.28;;
1376;SDS011;682;52.502;13.488;2022-12-01T15:35:17;55.10;;;33.35;;
1376;SDS011;682;52.502;13.488;2022-12-01T15:37:49;49.33;;;32.53;;
1376;SDS011;682;52.502;13.488;2022-12-01T15:40:24;52.65;;;33.80;;
1376;SDS011;682;52.502;13.488;2022-12-01T15:43:00;52.38;;;34.35;;
1376;SDS011;682;52.502;13.488;2022-12-01T15:45:40;57.13;;;34.78;;
1376;SDS011;682;52.502;13.488;2022-12-01T15:48:14;55.03;;;36.28;;